Cloud Lake, Florida
Current Conditions -  °F | °C
As of 11:53 AM on Saturday 25 Oct 2014 (Local Time) from KPBI Reporting Station
Scattered Clouds Scattered Clouds  
Wind Chill: 80°   Ceiling: Unl
Heat Index: 81°   Visibility: 10mi
Dew Point: 61°   Wind: 12mph
Humidity: 52%   Direction: 20°NNE
Pressure: 29.92"   Gusts: NA
Location:  26.6662°N, 80.0908°W
Report Text: KPBI 251553Z 02010KT 10SM SCT039 27/16 A2992 RMK AO2 SLP132 T02670161
Loading
Personal Weather Stations






























Interactive Weather Map
Tropical Storm Tracking
New forecast layout! Learn more

10-Day Weather Forecast

Advertisements
Track Severe Weather on mobile